sensor_id;sensor_type;location;lat;lon;timestamp;temperature;humidity
18932;DHT22;9598;50.954;3.112;2023-05-07T00:04:48;18.50;99.90
18932;DHT22;9598;50.954;3.112;2023-05-07T00:09:52;18.50;99.90
18932;DHT22;9598;50.954;3.112;2023-05-07T00:14:54;18.50;99.90
18932;DHT22;9598;50.954;3.112;2023-05-07T00:19:56;18.50;99.90
18932;DHT22;9598;50.954;3.112;2023-05-07T00:25:00;18.50;99.90
18932;DHT22;9598;50.954;3.112;2023-05-07T00:30:02;18.50;99.90
18932;DHT22;9598;50.954;3.112;2023-05-07T00:35:05;18.50;99.90
18932;DHT22;9598;50.954;3.112;2023-05-07T00:40:09;18.40;99.90
18932;DHT22;9598;50.954;3.112;2023-05-07T00:45:12;18.40;99.90
18932;DHT22;9598;50.954;3.112;2023-05-07T00:50:14;18.40;99.90
18932;DHT22;9598;50.954;3.112;2023-05-07T00:55:17;18.30;99.90
18932;DHT22;9598;50.954;3.112;2023-05-07T01:00:20;18.40;99.90
18932;DHT22;9598;50.954;3.112;2023-05-07T01:05:23;18.40;99.90
18932;DHT22;9598;50.954;3.112;2023-05-07T01:10:28;18.30;99.90
18932;DHT22;9598;50.954;3.112;2023-05-07T01:15:31;18.30;99.90
18932;DHT22;9598;50.954;3.112;2023-05-07T01:20:34;18.30;99.90
18932;DHT22;9598;50.954;3.112;2023-05-07T01:25:38;18.30;99.90
18932;DHT22;9598;50.954;3.112;2023-05-07T01:30:42;18.30;99.90
18932;DHT22;9598;50.954;3.112;2023-05-07T01:35:48;18.20;99.90
18932;DHT22;9598;50.954;3.112;2023-05-07T01:40:53;18.20;99.90
18932;DHT22;9598;50.954;3.112;2023-05-07T01:45:56;18.20;99.90
18932;DHT22;9598;50.954;3.112;2023-05-07T01:50:59;18.20;99.90
18932;DHT22;9598;50.954;3.112;2023-05-07T01:56:03;18.10;99.90
18932;DHT22;9598;50.954;3.112;2023-05-07T02:01:07;18.10;99.90
18932;DHT22;9598;50.954;3.112;2023-05-07T02:06:10;18.10;99.90
18932;DHT22;9598;50.954;3.112;2023-05-07T02:11:15;18.10;99.90
18932;DHT22;9598;50.954;3.112;2023-05-07T02:16:17;18.10;99.90
18932;DHT22;9598;50.954;3.112;2023-05-07T02:21:21;18.10;99.90
18932;DHT22;9598;50.954;3.112;2023-05-07T02:26:24;18.10;99.90
18932;DHT22;9598;50.954;3.112;2023-05-07T02:31:27;18.10;99.90
18932;DHT22;9598;50.954;3.112;2023-05-07T02:36:30;18.10;99.90
18932;DHT22;9598;50.954;3.112;2023-05-07T02:41:39;18.10;99.90
18932;DHT22;9598;50.954;3.112;2023-05-07T02:46:41;18.10;99.90
18932;DHT22;9598;50.954;3.112;2023-05-07T02:51:47;18.00;99.90
18932;DHT22;9598;50.954;3.112;2023-05-07T02:56:56;18.00;99.90
18932;DHT22;9598;50.954;3.112;2023-05-07T03:01:58;18.00;99.90
18932;DHT22;9598;50.954;3.112;2023-05-07T03:07:00;18.00;99.90
18932;DHT22;9598;50.954;3.112;2023-05-07T03:12:04;17.90;99.90
18932;DHT22;9598;50.954;3.112;2023-05-07T03:17:06;17.90;99.90
18932;DHT22;9598;50.954;3.112;2023-05-07T03:22:08;17.80;99.90
18932;DHT22;9598;50.954;3.112;2023-05-07T03:27:12;17.80;99.90
18932;DHT22;9598;50.954;3.112;2023-05-07T03:32:14;17.80;99.90
18932;DHT22;9598;50.954;3.112;2023-05-07T03:37:17;17.80;99.90
18932;DHT22;9598;50.954;3.112;2023-05-07T03:42:21;17.70;99.90
18932;DHT22;9598;50.954;3.112;2023-05-07T03:47:25;17.60;99.90
18932;DHT22;9598;50.954;3.112;2023-05-07T03:52:28;17.60;99.90
18932;DHT22;9598;50.954;3.112;2023-05-07T03:57:36;17.60;99.90
18932;DHT22;9598;50.954;3.112;2023-05-07T04:02:39;17.50;99.90
18932;DHT22;9598;50.954;3.112;2023-05-07T04:07:41;17.50;99.90
18932;DHT22;9598;50.954;3.112;2023-05-07T04:12:47;17.50;99.90
18932;DHT22;9598;50.954;3.112;2023-05-07T04:17:53;17.40;99.90
18932;DHT22;9598;50.954;3.112;2023-05-07T04:22:57;17.50;99.90
18932;DHT22;9598;50.954;3.112;2023-05-07T04:28:01;17.50;99.90
18932;DHT22;9598;50.954;3.112;2023-05-07T04:33:04;17.50;99.90
18932;DHT22;9598;50.954;3.112;2023-05-07T04:38:08;17.60;99.90
18932;DHT22;9598;50.954;3.112;2023-05-07T04:43:12;17.60;99.90
18932;DHT22;9598;50.954;3.112;2023-05-07T04:48:20;17.60;99.90
18932;DHT22;9598;50.954;3.112;2023-05-07T04:53:24;17.60;99.90
18932;DHT22;9598;50.954;3.112;2023-05-07T04:58:29;17.70;99.90
18932;DHT22;9598;50.954;3.112;2023-05-07T05:03:32;17.60;99.90
18932;DHT22;9598;50.954;3.112;2023-05-07T05:08:34;17.60;99.90
18932;DHT22;9598;50.954;3.112;2023-05-07T05:13:39;17.60;99.90
18932;DHT22;9598;50.954;3.112;2023-05-07T05:18:50;17.60;99.90
18932;DHT22;9598;50.954;3.112;2023-05-07T05:23:53;17.60;99.90
18932;DHT22;9598;50.954;3.112;2023-05-07T05:29:00;17.70;99.90
18932;DHT22;9598;50.954;3.112;2023-05-07T05:34:04;17.70;99.90
18932;DHT22;9598;50.954;3.112;2023-05-07T05:39:06;17.60;99.90
18932;DHT22;9598;50.954;3.112;2023-05-07T05:44:10;17.60;99.90
18932;DHT22;9598;50.954;3.112;2023-05-07T05:49:13;17.70;99.90
18932;DHT22;9598;50.954;3.112;2023-05-07T05:54:17;17.60;99.90
18932;DHT22;9598;50.954;3.112;2023-05-07T05:59:20;17.60;99.90
18932;DHT22;9598;50.954;3.112;2023-05-07T06:04:23;17.60;99.90
18932;DHT22;9598;50.954;3.112;2023-05-07T06:09:25;17.60;99.90
18932;DHT22;9598;50.954;3.112;2023-05-07T06:14:28;17.60;99.90
18932;DHT22;9598;50.954;3.112;2023-05-07T06:19:31;17.60;99.90
18932;DHT22;9598;50.954;3.112;2023-05-07T06:24:34;17.60;99.90
18932;DHT22;9598;50.954;3.112;2023-05-07T06:29:39;17.60;99.90
18932;DHT22;9598;50.954;3.112;2023-05-07T06:34:47;17.70;99.90
18932;DHT22;9598;50.954;3.112;2023-05-07T06:39:50;17.60;99.90
18932;DHT22;9598;50.954;3.112;2023-05-07T06:44:53;17.60;99.90
18932;DHT22;9598;50.954;3.112;2023-05-07T06:49:56;17.60;99.90
18932;DHT22;9598;50.954;3.112;2023-05-07T06:55:01;17.60;99.90
18932;DHT22;9598;50.954;3.112;2023-05-07T07:00:07;17.60;99.90
18932;DHT22;9598;50.954;3.112;2023-05-07T07:05:18;17.60;99.90
18932;DHT22;9598;50.954;3.112;2023-05-07T07:10:21;17.60;99.90
18932;DHT22;9598;50.954;3.112;2023-05-07T07:15:26;17.70;99.90
18932;DHT22;9598;50.954;3.112;2023-05-07T07:20:30;17.70;99.90
18932;DHT22;9598;50.954;3.112;2023-05-07T07:25:33;17.70;99.90
18932;DHT22;9598;50.954;3.112;2023-05-07T07:30:36;17.80;99.90
18932;DHT22;9598;50.954;3.112;2023-05-07T07:35:39;17.80;99.90
18932;DHT22;9598;50.954;3.112;2023-05-07T07:40:41;17.80;99.90
18932;DHT22;9598;50.954;3.112;2023-05-07T07:45:46;17.80;99.90
18932;DHT22;9598;50.954;3.112;2023-05-07T07:50:49;17.80;99.90
18932;DHT22;9598;50.954;3.112;2023-05-07T07:55:52;17.90;99.90
18932;DHT22;9598;50.954;3.112;2023-05-07T08:00:59;17.90;99.90
18932;DHT22;9598;50.954;3.112;2023-05-07T08:06:02;17.90;99.90
18932;DHT22;9598;50.954;3.112;2023-05-07T08:11:06;17.90;99.90
18932;DHT22;9598;50.954;3.112;2023-05-07T08:16:11;17.90;99.90
18932;DHT22;9598;50.954;3.112;2023-05-07T08:21:14;18.00;99.90
18932;DHT22;9598;50.954;3.112;2023-05-07T08:26:17;18.00;99.90
18932;DHT22;9598;50.954;3.112;2023-05-07T08:31:21;18.10;99.90
18932;DHT22;9598;50.954;3.112;2023-05-07T08:36:23;18.10;99.90
18932;DHT22;9598;50.954;3.112;2023-05-07T08:41:25;18.10;99.90
18932;DHT22;9598;50.954;3.112;2023-05-07T08:46:31;18.20;99.90
18932;DHT22;9598;50.954;3.112;2023-05-07T08:51:34;18.10;99.90
18932;DHT22;9598;50.954;3.112;2023-05-07T08:56:37;18.10;99.90
18932;DHT22;9598;50.954;3.112;2023-05-07T09:01:41;18.20;99.90
18932;DHT22;9598;50.954;3.112;2023-05-07T09:06:44;18.20;99.90
18932;DHT22;9598;50.954;3.112;2023-05-07T09:11:56;18.20;99.90
18932;DHT22;9598;50.954;3.112;2023-05-07T09:17:02;18.20;99.90
18932;DHT22;9598;50.954;3.112;2023-05-07T09:22:05;18.20;99.90
18932;DHT22;9598;50.954;3.112;2023-05-07T09:27:18;18.20;99.90
18932;DHT22;9598;50.954;3.112;2023-05-07T09:32:22;18.20;99.90
18932;DHT22;9598;50.954;3.112;2023-05-07T09:37:26;18.20;99.90
18932;DHT22;9598;50.954;3.112;2023-05-07T09:42:29;18.20;99.90
18932;DHT22;9598;50.954;3.112;2023-05-07T09:47:39;18.30;99.90
18932;DHT22;9598;50.954;3.112;2023-05-07T09:52:46;18.20;99.90
18932;DHT22;9598;50.954;3.112;2023-05-07T09:57:50;18.20;99.90
18932;DHT22;9598;50.954;3.112;2023-05-07T10:02:56;18.20;99.90
18932;DHT22;9598;50.954;3.112;2023-05-07T10:08:08;18.30;99.90
18932;DHT22;9598;50.954;3.112;2023-05-07T10:13:13;18.30;99.90
18932;DHT22;9598;50.954;3.112;2023-05-07T10:18:21;18.30;99.90
18932;DHT22;9598;50.954;3.112;2023-05-07T10:23:32;18.30;99.90
18932;DHT22;9598;50.954;3.112;2023-05-07T10:28:45;18.20;99.90
18932;DHT22;9598;50.954;3.112;2023-05-07T10:33:51;18.20;99.90
18932;DHT22;9598;50.954;3.112;2023-05-07T10:38:57;18.20;99.90
18932;DHT22;9598;50.954;3.112;2023-05-07T10:44:00;18.20;99.90
18932;DHT22;9598;50.954;3.112;2023-05-07T10:49:10;18.20;99.90
18932;DHT22;9598;50.954;3.112;2023-05-07T10:54:36;18.20;99.90
18932;DHT22;9598;50.954;3.112;2023-05-07T10:59:44;18.20;99.90
18932;DHT22;9598;50.954;3.112;2023-05-07T11:05:20;18.20;99.90
18932;DHT22;9598;50.954;3.112;2023-05-07T11:10:49;18.10;99.90
18932;DHT22;9598;50.954;3.112;2023-05-07T11:16:18;18.20;99.90
18932;DHT22;9598;50.954;3.112;2023-05-07T11:21:35;18.20;99.90
18932;DHT22;9598;50.954;3.112;2023-05-07T11:26:50;18.30;99.90
18932;DHT22;9598;50.954;3.112;2023-05-07T11:31:55;18.30;99.90
18932;DHT22;9598;50.954;3.112;2023-05-07T11:37:04;18.30;99.90
18932;DHT22;9598;50.954;3.112;2023-05-07T11:42:25;18.40;99.90
18932;DHT22;9598;50.954;3.112;2023-05-07T11:47:30;18.40;99.90
18932;DHT22;9598;50.954;3.112;2023-05-07T11:52:34;18.40;99.90
18932;DHT22;9598;50.954;3.112;2023-05-07T11:57:36;18.50;99.90
18932;DHT22;9598;50.954;3.112;2023-05-07T12:02:38;18.60;99.90
18932;DHT22;9598;50.954;3.112;2023-05-07T12:07:42;18.70;99.90
18932;DHT22;9598;50.954;3.112;2023-05-07T12:12:46;18.80;99.90
18932;DHT22;9598;50.954;3.112;2023-05-07T12:17:48;18.80;99.90
18932;DHT22;9598;50.954;3.112;2023-05-07T12:22:52;18.90;99.90
18932;DHT22;9598;50.954;3.112;2023-05-07T12:27:55;18.90;99.90
18932;DHT22;9598;50.954;3.112;2023-05-07T12:32:59;18.90;99.90
18932;DHT22;9598;50.954;3.112;2023-05-07T12:38:03;18.90;99.90
18932;DHT22;9598;50.954;3.112;2023-05-07T12:43:15;18.80;99.90
18932;DHT22;9598;50.954;3.112;2023-05-07T12:48:19;18.70;99.90
18932;DHT22;9598;50.954;3.112;2023-05-07T12:53:24;18.70;99.90
18932;DHT22;9598;50.954;3.112;2023-05-07T12:58:28;18.60;99.90
18932;DHT22;9598;50.954;3.112;2023-05-07T13:03:31;18.60;99.90
18932;DHT22;9598;50.954;3.112;2023-05-07T13:08:37;18.70;99.90
18932;DHT22;9598;50.954;3.112;2023-05-07T13:13:41;18.60;99.90
18932;DHT22;9598;50.954;3.112;2023-05-07T13:18:45;18.60;99.90
18932;DHT22;9598;50.954;3.112;2023-05-07T13:23:52;18.60;99.90
18932;DHT22;9598;50.954;3.112;2023-05-07T13:28:54;18.70;99.90
18932;DHT22;9598;50.954;3.112;2023-05-07T13:33:56;18.70;99.90
18932;DHT22;9598;50.954;3.112;2023-05-07T13:39:00;18.70;99.90
18932;DHT22;9598;50.954;3.112;2023-05-07T13:44:02;18.80;99.90
18932;DHT22;9598;50.954;3.112;2023-05-07T13:49:04;18.90;99.90
18932;DHT22;9598;50.954;3.112;2023-05-07T13:54:08;19.00;99.90
18932;DHT22;9598;50.954;3.112;2023-05-07T13:59:10;19.00;99.90
18932;DHT22;9598;50.954;3.112;2023-05-07T14:04:14;19.10;99.90
18932;DHT22;9598;50.954;3.112;2023-05-07T14:09:19;19.30;99.90
18932;DHT22;9598;50.954;3.112;2023-05-07T14:14:21;19.40;99.90
18932;DHT22;9598;50.954;3.112;2023-05-07T14:19:23;19.40;99.90
18932;DHT22;9598;50.954;3.112;2023-05-07T14:24:27;19.40;99.90
18932;DHT22;9598;50.954;3.112;2023-05-07T14:29:29;19.50;99.90
18932;DHT22;9598;50.954;3.112;2023-05-07T14:34:31;19.70;99.90
18932;DHT22;9598;50.954;3.112;2023-05-07T14:39:34;19.70;99.90
18932;DHT22;9598;50.954;3.112;2023-05-07T14:44:37;19.80;99.90
18932;DHT22;9598;50.954;3.112;2023-05-07T14:49:41;20.00;99.90
18932;DHT22;9598;50.954;3.112;2023-05-07T14:54:45;20.20;99.90
18932;DHT22;9598;50.954;3.112;2023-05-07T14:59:47;20.10;99.90
18932;DHT22;9598;50.954;3.112;2023-05-07T15:04:49;20.10;99.90
18932;DHT22;9598;50.954;3.112;2023-05-07T15:09:52;20.20;99.90
18932;DHT22;9598;50.954;3.112;2023-05-07T15:14:54;20.10;99.90
18932;DHT22;9598;50.954;3.112;2023-05-07T15:19:56;20.10;99.90
18932;DHT22;9598;50.954;3.112;2023-05-07T15:25:00;20.20;99.90
18932;DHT22;9598;50.954;3.112;2023-05-07T15:30:02;20.30;99.90
18932;DHT22;9598;50.954;3.112;2023-05-07T15:35:07;20.40;99.90
18932;DHT22;9598;50.954;3.112;2023-05-07T15:40:12;20.40;99.90
18932;DHT22;9598;50.954;3.112;2023-05-07T15:45:14;20.40;99.90
18932;DHT22;9598;50.954;3.112;2023-05-07T15:50:17;20.60;99.90
18932;DHT22;9598;50.954;3.112;2023-05-07T15:55:20;20.60;99.90
18932;DHT22;9598;50.954;3.112;2023-05-07T16:00:25;20.70;99.90
18932;DHT22;9598;50.954;3.112;2023-05-07T16:05:27;20.70;99.90
18932;DHT22;9598;50.954;3.112;2023-05-07T16:10:32;20.60;99.90
18932;DHT22;9598;50.954;3.112;2023-05-07T16:15:34;20.50;99.90
18932;DHT22;9598;50.954;3.112;2023-05-07T16:20:37;20.40;99.90
18932;DHT22;9598;50.954;3.112;2023-05-07T16:25:40;20.40;99.90
18932;DHT22;9598;50.954;3.112;2023-05-07T16:30:42;20.40;99.90
18932;DHT22;9598;50.954;3.112;2023-05-07T16:35:50;20.30;99.90
18932;DHT22;9598;50.954;3.112;2023-05-07T16:40:54;20.20;99.90
18932;DHT22;9598;50.954;3.112;2023-05-07T16:45:56;20.20;99.90
18932;DHT22;9598;50.954;3.112;2023-05-07T16:50:58;20.20;99.90
18932;DHT22;9598;50.954;3.112;2023-05-07T16:56:04;20.30;99.90
18932;DHT22;9598;50.954;3.112;2023-05-07T17:01:07;20.30;99.90
18932;DHT22;9598;50.954;3.112;2023-05-07T17:06:11;20.30;99.90
18932;DHT22;9598;50.954;3.112;2023-05-07T17:11:16;20.30;99.90
18932;DHT22;9598;50.954;3.112;2023-05-07T17:16:18;20.30;99.90
18932;DHT22;9598;50.954;3.112;2023-05-07T17:21:20;20.40;99.90
18932;DHT22;9598;50.954;3.112;2023-05-07T17:26:23;20.40;99.90
18932;DHT22;9598;50.954;3.112;2023-05-07T17:31:26;20.40;99.90
18932;DHT22;9598;50.954;3.112;2023-05-07T17:36:28;20.40;99.90
18932;DHT22;9598;50.954;3.112;2023-05-07T17:41:34;20.50;99.90
18932;DHT22;9598;50.954;3.112;2023-05-07T17:46:36;20.50;99.90
18932;DHT22;9598;50.954;3.112;2023-05-07T17:51:38;20.40;99.90
18932;DHT22;9598;50.954;3.112;2023-05-07T17:56:41;20.30;99.90
18932;DHT22;9598;50.954;3.112;2023-05-07T18:01:44;20.10;99.90
18932;DHT22;9598;50.954;3.112;2023-05-07T18:06:46;20.00;99.90
18932;DHT22;9598;50.954;3.112;2023-05-07T18:11:49;19.90;99.90
18932;DHT22;9598;50.954;3.112;2023-05-07T18:16:51;19.80;99.90
18932;DHT22;9598;50.954;3.112;2023-05-07T18:21:53;19.70;99.90
18932;DHT22;9598;50.954;3.112;2023-05-07T18:26:58;19.60;99.90
18932;DHT22;9598;50.954;3.112;2023-05-07T18:32:00;19.50;99.90
18932;DHT22;9598;50.954;3.112;2023-05-07T18:37:03;19.40;99.90
18932;DHT22;9598;50.954;3.112;2023-05-07T18:42:06;19.30;99.90
18932;DHT22;9598;50.954;3.112;2023-05-07T18:47:08;19.20;99.90
18932;DHT22;9598;50.954;3.112;2023-05-07T18:52:11;19.10;99.90
18932;DHT22;9598;50.954;3.112;2023-05-07T18:57:14;19.00;99.90
18932;DHT22;9598;50.954;3.112;2023-05-07T19:02:16;19.00;99.90
18932;DHT22;9598;50.954;3.112;2023-05-07T19:07:18;19.00;99.90
18932;DHT22;9598;50.954;3.112;2023-05-07T19:12:22;18.90;99.90
18932;DHT22;9598;50.954;3.112;2023-05-07T19:17:24;18.90;99.90
18932;DHT22;9598;50.954;3.112;2023-05-07T19:22:27;18.80;99.90
18932;DHT22;9598;50.954;3.112;2023-05-07T19:27:30;18.80;99.90
18932;DHT22;9598;50.954;3.112;2023-05-07T19:32:32;18.80;99.90
18932;DHT22;9598;50.954;3.112;2023-05-07T19:37:34;18.80;99.90
18932;DHT22;9598;50.954;3.112;2023-05-07T19:42:38;18.80;99.90
18932;DHT22;9598;50.954;3.112;2023-05-07T19:47:40;18.70;99.90
18932;DHT22;9598;50.954;3.112;2023-05-07T19:52:42;18.70;99.90
18932;DHT22;9598;50.954;3.112;2023-05-07T19:57:45;18.60;99.90
18932;DHT22;9598;50.954;3.112;2023-05-07T20:02:49;18.60;99.90
18932;DHT22;9598;50.954;3.112;2023-05-07T20:07:51;18.50;99.90
18932;DHT22;9598;50.954;3.112;2023-05-07T20:12:55;18.40;99.90
18932;DHT22;9598;50.954;3.112;2023-05-07T20:17:57;18.30;99.90
18932;DHT22;9598;50.954;3.112;2023-05-07T20:22:59;18.20;99.90
18932;DHT22;9598;50.954;3.112;2023-05-07T20:28:03;18.10;99.90
18932;DHT22;9598;50.954;3.112;2023-05-07T20:33:05;18.00;99.90
18932;DHT22;9598;50.954;3.112;2023-05-07T20:38:07;17.90;99.90
18932;DHT22;9598;50.954;3.112;2023-05-07T20:43:11;17.80;99.90
18932;DHT22;9598;50.954;3.112;2023-05-07T20:48:13;17.60;99.90
18932;DHT22;9598;50.954;3.112;2023-05-07T20:53:15;17.40;99.90
18932;DHT22;9598;50.954;3.112;2023-05-07T20:58:18;17.20;99.90
18932;DHT22;9598;50.954;3.112;2023-05-07T21:03:21;17.10;99.90
18932;DHT22;9598;50.954;3.112;2023-05-07T21:08:23;17.00;99.90
18932;DHT22;9598;50.954;3.112;2023-05-07T21:13:26;16.90;99.90
18932;DHT22;9598;50.954;3.112;2023-05-07T21:18:28;16.90;99.90
18932;DHT22;9598;50.954;3.112;2023-05-07T21:23:30;16.80;99.90
18932;DHT22;9598;50.954;3.112;2023-05-07T21:28:34;16.80;99.90
18932;DHT22;9598;50.954;3.112;2023-05-07T21:33:36;16.80;99.90
18932;DHT22;9598;50.954;3.112;2023-05-07T21:38:38;16.70;99.90
18932;DHT22;9598;50.954;3.112;2023-05-07T21:43:42;16.70;99.90
18932;DHT22;9598;50.954;3.112;2023-05-07T21:48:44;16.60;99.90
18932;DHT22;9598;50.954;3.112;2023-05-07T21:53:46;16.60;99.90
18932;DHT22;9598;50.954;3.112;2023-05-07T21:58:50;16.60;99.90
18932;DHT22;9598;50.954;3.112;2023-05-07T22:03:52;16.60;99.90
18932;DHT22;9598;50.954;3.112;2023-05-07T22:08:54;16.50;99.90
18932;DHT22;9598;50.954;3.112;2023-05-07T22:13:57;16.50;99.90
18932;DHT22;9598;50.954;3.112;2023-05-07T22:19:00;16.40;99.90
18932;DHT22;9598;50.954;3.112;2023-05-07T22:24:02;16.40;99.90
18932;DHT22;9598;50.954;3.112;2023-05-07T22:29:08;16.40;99.90
18932;DHT22;9598;50.954;3.112;2023-05-07T22:34:10;16.40;99.90
18932;DHT22;9598;50.954;3.112;2023-05-07T22:39:12;16.40;99.90
18932;DHT22;9598;50.954;3.112;2023-05-07T22:44:15;16.30;99.90
18932;DHT22;9598;50.954;3.112;2023-05-07T22:49:17;16.20;99.90
18932;DHT22;9598;50.954;3.112;2023-05-07T22:54:20;16.10;99.90
18932;DHT22;9598;50.954;3.112;2023-05-07T22:59:23;16.10;99.90
18932;DHT22;9598;50.954;3.112;2023-05-07T23:04:25;16.10;99.90
18932;DHT22;9598;50.954;3.112;2023-05-07T23:09:27;16.10;99.90
18932;DHT22;9598;50.954;3.112;2023-05-07T23:14:31;16.10;99.90
18932;DHT22;9598;50.954;3.112;2023-05-07T23:19:33;16.10;99.90
18932;DHT22;9598;50.954;3.112;2023-05-07T23:24:35;16.00;99.90
18932;DHT22;9598;50.954;3.112;2023-05-07T23:29:38;16.10;99.90
18932;DHT22;9598;50.954;3.112;2023-05-07T23:34:40;16.00;99.90
18932;DHT22;9598;50.954;3.112;2023-05-07T23:39:43;16.00;99.90
18932;DHT22;9598;50.954;3.112;2023-05-07T23:44:47;16.00;99.90
18932;DHT22;9598;50.954;3.112;2023-05-07T23:49:49;16.00;99.90
18932;DHT22;9598;50.954;3.112;2023-05-07T23:54:51;16.00;99.90
18932;DHT22;9598;50.954;3.112;2023-05-07T23:59:55;16.00;99.90
